sensor_id;sensor_type;location;lat;lon;timestamp;pressure;altitude;pressure_sealevel;temperature;humidity
34696;BME280;20918;51.138;17.370;2023-09-07T00:02:00;101091.39;;;12.27;80.17
34696;BME280;20918;51.138;17.370;2023-09-07T00:05:00;101091.11;;;12.24;79.57
34696;BME280;20918;51.138;17.370;2023-09-07T00:08:01;101096.09;;;12.22;79.20
34696;BME280;20918;51.138;17.370;2023-09-07T00:11:08;101096.75;;;12.19;79.08
34696;BME280;20918;51.138;17.370;2023-09-07T00:14:09;101099.55;;;12.16;78.88
34696;BME280;20918;51.138;17.370;2023-09-07T00:17:10;101103.71;;;12.12;78.66
34696;BME280;20918;51.138;17.370;2023-09-07T00:20:11;101103.89;;;12.06;79.00
34696;BME280;20918;51.138;17.370;2023-09-07T00:23:11;101102.23;;;12.03;78.80
34696;BME280;20918;51.138;17.370;2023-09-07T00:26:12;101103.52;;;11.99;78.66
34696;BME280;20918;51.138;17.370;2023-09-07T00:29:13;101102.05;;;11.98;78.81
34696;BME280;20918;51.138;17.370;2023-09-07T00:32:14;101101.67;;;11.95;78.88
34696;BME280;20918;51.138;17.370;2023-09-07T00:35:14;101100.72;;;11.88;78.81
34696;BME280;20918;51.138;17.370;2023-09-07T00:38:15;101104.16;;;11.80;78.84
34696;BME280;20918;51.138;17.370;2023-09-07T00:41:15;101096.80;;;11.76;78.97
34696;BME280;20918;51.138;17.370;2023-09-07T00:44:16;101096.91;;;11.73;79.02
34696;BME280;20918;51.138;17.370;2023-09-07T00:47:17;101093.80;;;11.70;78.93
34696;BME280;20918;51.138;17.370;2023-09-07T00:50:18;101092.52;;;11.66;78.91
34696;BME280;20918;51.138;17.370;2023-09-07T00:53:20;101086.34;;;11.63;78.84
34696;BME280;20918;51.138;17.370;2023-09-07T00:56:20;101083.08;;;11.58;78.94
34696;BME280;20918;51.138;17.370;2023-09-07T00:59:21;101083.20;;;11.55;78.95
34696;BME280;20918;51.138;17.370;2023-09-07T01:02:22;101087.25;;;11.52;79.12
34696;BME280;20918;51.138;17.370;2023-09-07T01:05:24;101089.28;;;11.49;79.22
34696;BME280;20918;51.138;17.370;2023-09-07T01:08:32;101082.50;;;11.46;79.19
34696;BME280;20918;51.138;17.370;2023-09-07T01:11:37;101080.77;;;11.38;79.16
34696;BME280;20918;51.138;17.370;2023-09-07T01:14:38;101085.45;;;11.37;79.18
34696;BME280;20918;51.138;17.370;2023-09-07T01:17:39;101088.40;;;11.33;79.56
34696;BME280;20918;51.138;17.370;2023-09-07T01:20:42;101089.98;;;11.26;79.96
34696;BME280;20918;51.138;17.370;2023-09-07T01:23:44;101089.14;;;11.19;80.09
34696;BME280;20918;51.138;17.370;2023-09-07T01:26:47;101090.46;;;11.17;80.30
34696;BME280;20918;51.138;17.370;2023-09-07T01:29:51;101087.14;;;11.16;80.54
34696;BME280;20918;51.138;17.370;2023-09-07T01:32:52;101089.16;;;11.17;80.27
34696;BME280;20918;51.138;17.370;2023-09-07T01:35:53;101089.52;;;11.15;79.65
34696;BME280;20918;51.138;17.370;2023-09-07T01:38:54;101084.99;;;11.12;79.40
34696;BME280;20918;51.138;17.370;2023-09-07T01:41:54;101085.34;;;11.09;79.59
34696;BME280;20918;51.138;17.370;2023-09-07T01:44:55;101082.23;;;11.06;79.92
34696;BME280;20918;51.138;17.370;2023-09-07T01:47:55;101084.14;;;11.08;80.69
34696;BME280;20918;51.138;17.370;2023-09-07T01:50:56;101082.92;;;11.14;81.03
34696;BME280;20918;51.138;17.370;2023-09-07T01:53:57;101084.10;;;11.18;81.01
34696;BME280;20918;51.138;17.370;2023-09-07T01:56:58;101089.15;;;11.17;80.17
34696;BME280;20918;51.138;17.370;2023-09-07T01:59:59;101088.16;;;11.16;80.12
34696;BME280;20918;51.138;17.370;2023-09-07T02:02:59;101089.52;;;11.15;80.06
34696;BME280;20918;51.138;17.370;2023-09-07T02:06:00;101089.06;;;11.14;80.85
34696;BME280;20918;51.138;17.370;2023-09-07T02:09:00;101089.79;;;11.12;80.76
34696;BME280;20918;51.138;17.370;2023-09-07T02:12:01;101088.96;;;11.12;80.81
34696;BME280;20918;51.138;17.370;2023-09-07T02:15:04;101089.83;;;11.10;81.18
34696;BME280;20918;51.138;17.370;2023-09-07T02:18:06;101090.89;;;11.12;81.50
34696;BME280;20918;51.138;17.370;2023-09-07T02:21:06;101087.33;;;11.12;81.31
34696;BME280;20918;51.138;17.370;2023-09-07T02:24:07;101093.27;;;11.13;81.57
34696;BME280;20918;51.138;17.370;2023-09-07T02:27:09;101093.66;;;11.16;81.87
34696;BME280;20918;51.138;17.370;2023-09-07T02:30:10;101094.48;;;11.17;81.71
34696;BME280;20918;51.138;17.370;2023-09-07T02:33:11;101088.19;;;11.13;81.38
34696;BME280;20918;51.138;17.370;2023-09-07T02:36:12;101093.77;;;11.06;81.31
34696;BME280;20918;51.138;17.370;2023-09-07T02:39:12;101096.45;;;10.96;81.44
34696;BME280;20918;51.138;17.370;2023-09-07T02:42:14;101092.58;;;10.92;81.73
34696;BME280;20918;51.138;17.370;2023-09-07T02:45:15;101093.25;;;10.89;81.94
34696;BME280;20918;51.138;17.370;2023-09-07T02:48:15;101091.52;;;10.87;81.83
34696;BME280;20918;51.138;17.370;2023-09-07T02:51:16;101089.15;;;10.86;82.20
34696;BME280;20918;51.138;17.370;2023-09-07T02:54:18;101091.80;;;10.86;82.08
34696;BME280;20918;51.138;17.370;2023-09-07T02:57:19;101090.05;;;10.86;82.00
34696;BME280;20918;51.138;17.370;2023-09-07T03:00:20;101093.89;;;10.86;81.95
34696;BME280;20918;51.138;17.370;2023-09-07T03:03:20;101091.37;;;10.85;82.24
34696;BME280;20918;51.138;17.370;2023-09-07T03:06:21;101095.05;;;10.77;82.35
34696;BME280;20918;51.138;17.370;2023-09-07T03:09:24;101094.88;;;10.70;81.84
34696;BME280;20918;51.138;17.370;2023-09-07T03:12:25;101097.73;;;10.66;82.12
34696;BME280;20918;51.138;17.370;2023-09-07T03:15:26;101098.30;;;10.64;82.30
34696;BME280;20918;51.138;17.370;2023-09-07T03:18:27;101100.69;;;10.59;81.92
34696;BME280;20918;51.138;17.370;2023-09-07T03:21:28;101098.23;;;10.53;81.65
34696;BME280;20918;51.138;17.370;2023-09-07T03:24:30;101098.05;;;10.51;82.36
34696;BME280;20918;51.138;17.370;2023-09-07T03:27:31;101103.02;;;10.49;82.53
34696;BME280;20918;51.138;17.370;2023-09-07T03:30:32;101101.17;;;10.44;82.26
34696;BME280;20918;51.138;17.370;2023-09-07T03:33:33;101100.77;;;10.43;82.56
34696;BME280;20918;51.138;17.370;2023-09-07T03:36:34;101102.14;;;10.43;82.24
34696;BME280;20918;51.138;17.370;2023-09-07T03:39:34;101102.79;;;10.40;81.93
34696;BME280;20918;51.138;17.370;2023-09-07T03:42:35;101098.35;;;10.37;82.21
34696;BME280;20918;51.138;17.370;2023-09-07T03:45:37;101103.45;;;10.35;82.01
34696;BME280;20918;51.138;17.370;2023-09-07T03:48:38;101103.18;;;10.32;82.21
34696;BME280;20918;51.138;17.370;2023-09-07T03:51:39;101101.34;;;10.29;82.57
34696;BME280;20918;51.138;17.370;2023-09-07T03:54:40;101097.45;;;10.24;82.67
34696;BME280;20918;51.138;17.370;2023-09-07T03:57:40;101092.27;;;10.21;82.14
34696;BME280;20918;51.138;17.370;2023-09-07T04:00:44;101094.45;;;10.17;82.18
34696;BME280;20918;51.138;17.370;2023-09-07T04:03:45;101096.38;;;10.15;82.32
34696;BME280;20918;51.138;17.370;2023-09-07T04:06:47;101095.80;;;10.16;81.72
34696;BME280;20918;51.138;17.370;2023-09-07T04:09:50;101102.45;;;10.16;81.94
34696;BME280;20918;51.138;17.370;2023-09-07T04:12:51;101105.86;;;10.16;81.80
34696;BME280;20918;51.138;17.370;2023-09-07T04:15:51;101106.92;;;10.14;81.73
34696;BME280;20918;51.138;17.370;2023-09-07T04:18:52;101111.25;;;10.15;82.22
34696;BME280;20918;51.138;17.370;2023-09-07T04:21:53;101112.92;;;10.16;81.82
34696;BME280;20918;51.138;17.370;2023-09-07T04:24:53;101111.48;;;10.16;82.02
34696;BME280;20918;51.138;17.370;2023-09-07T04:27:54;101112.87;;;10.18;82.35
34696;BME280;20918;51.138;17.370;2023-09-07T04:30:56;101114.02;;;10.19;81.92
34696;BME280;20918;51.138;17.370;2023-09-07T04:33:57;101115.36;;;10.18;81.96
34696;BME280;20918;51.138;17.370;2023-09-07T04:36:58;101112.70;;;10.18;82.29
34696;BME280;20918;51.138;17.370;2023-09-07T04:39:58;101117.02;;;10.21;82.69
34696;BME280;20918;51.138;17.370;2023-09-07T04:42:59;101120.60;;;10.21;82.37
34696;BME280;20918;51.138;17.370;2023-09-07T04:46:00;101122.55;;;10.23;82.35
34696;BME280;20918;51.138;17.370;2023-09-07T04:49:01;101122.95;;;10.24;82.40
34696;BME280;20918;51.138;17.370;2023-09-07T04:52:01;101125.58;;;10.26;82.30
34696;BME280;20918;51.138;17.370;2023-09-07T04:55:06;101125.47;;;10.30;82.01
34696;BME280;20918;51.138;17.370;2023-09-07T04:58:07;101122.11;;;10.32;81.97
34696;BME280;20918;51.138;17.370;2023-09-07T05:01:12;101123.64;;;10.40;82.33
34696;BME280;20918;51.138;17.370;2023-09-07T05:04:13;101123.11;;;10.48;82.49
34696;BME280;20918;51.138;17.370;2023-09-07T05:07:13;101128.17;;;10.58;82.52
34696;BME280;20918;51.138;17.370;2023-09-07T05:10:14;101129.57;;;10.74;83.04
34696;BME280;20918;51.138;17.370;2023-09-07T05:13:15;101134.30;;;11.15;83.72
34696;BME280;20918;51.138;17.370;2023-09-07T05:16:16;101130.73;;;11.67;83.67
34696;BME280;20918;51.138;17.370;2023-09-07T05:19:16;101135.41;;;12.28;83.65
34696;BME280;20918;51.138;17.370;2023-09-07T05:22:17;101132.86;;;12.95;83.57
34696;BME280;20918;51.138;17.370;2023-09-07T05:25:21;101132.96;;;13.65;83.31
34696;BME280;20918;51.138;17.370;2023-09-07T05:28:22;101132.77;;;14.35;83.00
34696;BME280;20918;51.138;17.370;2023-09-07T05:31:23;101134.54;;;15.07;82.34
34696;BME280;20918;51.138;17.370;2023-09-07T05:34:24;101135.89;;;15.67;81.24
34696;BME280;20918;51.138;17.370;2023-09-07T05:37:26;101139.48;;;16.15;80.47
34696;BME280;20918;51.138;17.370;2023-09-07T05:40:28;101142.59;;;16.72;80.03
34696;BME280;20918;51.138;17.370;2023-09-07T05:43:29;101144.89;;;17.32;79.03
34696;BME280;20918;51.138;17.370;2023-09-07T05:46:30;101146.51;;;17.82;78.10
34696;BME280;20918;51.138;17.370;2023-09-07T05:49:30;101146.63;;;18.29;76.91
34696;BME280;20918;51.138;17.370;2023-09-07T05:52:31;101147.34;;;18.67;75.90
34696;BME280;20918;51.138;17.370;2023-09-07T05:55:32;101150.37;;;18.94;74.66
34696;BME280;20918;51.138;17.370;2023-09-07T05:58:32;101154.86;;;19.19;73.95
34696;BME280;20918;51.138;17.370;2023-09-07T06:01:34;101153.38;;;19.42;73.19
34696;BME280;20918;51.138;17.370;2023-09-07T06:04:38;101150.36;;;19.72;73.15
34696;BME280;20918;51.138;17.370;2023-09-07T06:07:39;101155.89;;;20.20;72.68
34696;BME280;20918;51.138;17.370;2023-09-07T06:10:40;101157.47;;;20.64;71.74
34696;BME280;20918;51.138;17.370;2023-09-07T06:13:42;101155.72;;;20.92;70.56
34696;BME280;20918;51.138;17.370;2023-09-07T06:16:46;101160.55;;;21.22;69.99
34696;BME280;20918;51.138;17.370;2023-09-07T06:19:47;101156.05;;;21.57;69.35
34696;BME280;20918;51.138;17.370;2023-09-07T06:22:47;101156.20;;;21.90;67.84
34696;BME280;20918;51.138;17.370;2023-09-07T06:25:49;101159.22;;;21.96;66.89
34696;BME280;20918;51.138;17.370;2023-09-07T06:28:50;101158.56;;;22.19;66.61
34696;BME280;20918;51.138;17.370;2023-09-07T06:31:51;101159.14;;;22.49;65.48
34696;BME280;20918;51.138;17.370;2023-09-07T06:34:53;101160.67;;;22.67;65.16
34696;BME280;20918;51.138;17.370;2023-09-07T06:37:54;101161.94;;;22.97;64.50
34696;BME280;20918;51.138;17.370;2023-09-07T06:40:57;101165.20;;;23.18;63.64
34696;BME280;20918;51.138;17.370;2023-09-07T06:44:00;101168.66;;;23.40;63.09
34696;BME280;20918;51.138;17.370;2023-09-07T06:47:00;101170.81;;;23.62;62.16
34696;BME280;20918;51.138;17.370;2023-09-07T06:50:02;101175.98;;;23.77;61.41
34696;BME280;20918;51.138;17.370;2023-09-07T06:53:05;101173.38;;;24.03;61.53
34696;BME280;20918;51.138;17.370;2023-09-07T06:56:05;101174.90;;;24.41;60.41
34696;BME280;20918;51.138;17.370;2023-09-07T06:59:07;101175.41;;;24.47;59.08
34696;BME280;20918;51.138;17.370;2023-09-07T07:02:07;101178.84;;;24.21;57.69
34696;BME280;20918;51.138;17.370;2023-09-07T07:05:08;101183.08;;;24.15;57.93
34696;BME280;20918;51.138;17.370;2023-09-07T07:08:09;101185.15;;;24.25;56.57
34696;BME280;20918;51.138;17.370;2023-09-07T07:11:10;101186.67;;;24.00;56.10
34696;BME280;20918;51.138;17.370;2023-09-07T07:14:11;101188.65;;;24.05;56.45
34696;BME280;20918;51.138;17.370;2023-09-07T07:17:15;101189.91;;;24.16;55.93
34696;BME280;20918;51.138;17.370;2023-09-07T07:20:15;101186.53;;;24.28;55.13
34696;BME280;20918;51.138;17.370;2023-09-07T07:23:16;101187.20;;;24.36;54.65
34696;BME280;20918;51.138;17.370;2023-09-07T07:26:16;101188.86;;;24.36;54.37
34696;BME280;20918;51.138;17.370;2023-09-07T07:29:18;101185.17;;;24.38;54.02
34696;BME280;20918;51.138;17.370;2023-09-07T07:32:21;101190.02;;;24.52;54.11
34696;BME280;20918;51.138;17.370;2023-09-07T07:35:23;101193.64;;;24.65;53.90
34696;BME280;20918;51.138;17.370;2023-09-07T07:38:24;101190.23;;;24.75;53.52
34696;BME280;20918;51.138;17.370;2023-09-07T07:41:25;101192.65;;;24.78;53.18
34696;BME280;20918;51.138;17.370;2023-09-07T07:44:25;101192.91;;;24.89;53.10
34696;BME280;20918;51.138;17.370;2023-09-07T07:47:26;101195.58;;;25.12;52.96
34696;BME280;20918;51.138;17.370;2023-09-07T07:50:30;101195.63;;;25.21;52.21
34696;BME280;20918;51.138;17.370;2023-09-07T07:53:32;101196.82;;;25.26;52.12
34696;BME280;20918;51.138;17.370;2023-09-07T07:56:38;101194.59;;;25.31;51.83
34696;BME280;20918;51.138;17.370;2023-09-07T07:59:39;101194.91;;;25.43;51.85
34696;BME280;20918;51.138;17.370;2023-09-07T08:02:44;101188.79;;;25.52;51.13
34696;BME280;20918;51.138;17.370;2023-09-07T08:05:47;101187.60;;;25.63;51.11
34696;BME280;20918;51.138;17.370;2023-09-07T08:08:48;101184.05;;;25.65;50.85
34696;BME280;20918;51.138;17.370;2023-09-07T08:11:49;101182.89;;;25.67;50.67
34696;BME280;20918;51.138;17.370;2023-09-07T08:14:52;101180.96;;;25.63;49.86
34696;BME280;20918;51.138;17.370;2023-09-07T08:17:52;101182.39;;;25.69;49.94
34696;BME280;20918;51.138;17.370;2023-09-07T08:20:53;101181.57;;;25.69;49.08
34696;BME280;20918;51.138;17.370;2023-09-07T08:23:55;101182.43;;;25.74;49.37
34696;BME280;20918;51.138;17.370;2023-09-07T08:26:57;101185.36;;;25.93;49.17
34696;BME280;20918;51.138;17.370;2023-09-07T08:29:58;101184.13;;;26.02;48.62
34696;BME280;20918;51.138;17.370;2023-09-07T08:33:08;101181.61;;;26.04;48.37
34696;BME280;20918;51.138;17.370;2023-09-07T08:36:12;101181.98;;;26.16;48.63
34696;BME280;20918;51.138;17.370;2023-09-07T08:39:17;101178.79;;;26.28;48.38
34696;BME280;20918;51.138;17.370;2023-09-07T08:42:18;101182.63;;;26.48;48.04
34696;BME280;20918;51.138;17.370;2023-09-07T08:45:25;101174.90;;;26.49;47.67
34696;BME280;20918;51.138;17.370;2023-09-07T08:48:29;101174.44;;;26.60;47.46
34696;BME280;20918;51.138;17.370;2023-09-07T08:51:31;101171.25;;;26.68;47.66
34696;BME280;20918;51.138;17.370;2023-09-07T08:54:33;101167.22;;;26.78;47.22
34696;BME280;20918;51.138;17.370;2023-09-07T08:57:37;101169.17;;;26.86;46.98
34696;BME280;20918;51.138;17.370;2023-09-07T09:00:42;101166.66;;;26.86;45.84
34696;BME280;20918;51.138;17.370;2023-09-07T09:03:43;101171.23;;;26.77;46.06
34696;BME280;20918;51.138;17.370;2023-09-07T09:06:45;101169.48;;;26.80;46.31
34696;BME280;20918;51.138;17.370;2023-09-07T09:09:47;101168.57;;;27.04;46.47
34696;BME280;20918;51.138;17.370;2023-09-07T09:12:48;101169.23;;;27.01;45.58
34696;BME280;20918;51.138;17.370;2023-09-07T09:15:54;101170.02;;;26.88;45.52
34696;BME280;20918;51.138;17.370;2023-09-07T09:18:56;101174.06;;;26.70;44.74
34696;BME280;20918;51.138;17.370;2023-09-07T09:22:00;101166.75;;;26.80;45.48
34696;BME280;20918;51.138;17.370;2023-09-07T09:25:04;101169.42;;;27.00;44.64
34696;BME280;20918;51.138;17.370;2023-09-07T09:28:06;101165.23;;;26.77;44.16
34696;BME280;20918;51.138;17.370;2023-09-07T09:31:06;101165.00;;;26.62;44.47
34696;BME280;20918;51.138;17.370;2023-09-07T09:34:12;101163.77;;;26.67;44.84
34696;BME280;20918;51.138;17.370;2023-09-07T09:37:13;101159.03;;;26.74;44.10
34696;BME280;20918;51.138;17.370;2023-09-07T09:40:19;101153.45;;;26.69;44.32
34696;BME280;20918;51.138;17.370;2023-09-07T09:43:24;101157.69;;;26.86;44.47
34696;BME280;20918;51.138;17.370;2023-09-07T09:46:26;101154.44;;;26.98;44.20
34696;BME280;20918;51.138;17.370;2023-09-07T09:49:29;101152.61;;;27.23;43.99
34696;BME280;20918;51.138;17.370;2023-09-07T09:52:30;101160.20;;;27.08;43.05
34696;BME280;20918;51.138;17.370;2023-09-07T09:55:31;101156.02;;;26.91;43.35
34696;BME280;20918;51.138;17.370;2023-09-07T09:58:35;101151.45;;;26.88;42.87
34696;BME280;20918;51.138;17.370;2023-09-07T10:01:47;101155.13;;;26.75;42.84
34696;BME280;20918;51.138;17.370;2023-09-07T10:04:50;101153.23;;;26.76;43.22
34696;BME280;20918;51.138;17.370;2023-09-07T10:07:51;101154.20;;;26.78;42.74
34696;BME280;20918;51.138;17.370;2023-09-07T10:10:56;101157.73;;;26.70;42.76
34696;BME280;20918;51.138;17.370;2023-09-07T10:14:01;101159.14;;;26.59;41.78
34696;BME280;20918;51.138;17.370;2023-09-07T10:17:03;101158.75;;;26.53;42.21
34696;BME280;20918;51.138;17.370;2023-09-07T10:20:05;101157.52;;;26.58;42.42
34696;BME280;20918;51.138;17.370;2023-09-07T10:23:05;101150.74;;;26.66;42.12
34696;BME280;20918;51.138;17.370;2023-09-07T10:26:17;101155.30;;;26.55;41.59
34696;BME280;20918;51.138;17.370;2023-09-07T10:29:17;101150.05;;;26.41;41.50
34696;BME280;20918;51.138;17.370;2023-09-07T10:32:19;101149.77;;;26.37;42.41
34696;BME280;20918;51.138;17.370;2023-09-07T10:35:23;101150.52;;;26.49;42.52
34696;BME280;20918;51.138;17.370;2023-09-07T10:38:26;101143.37;;;26.51;42.56
34696;BME280;20918;51.138;17.370;2023-09-07T10:41:26;101137.74;;;26.66;42.56
34696;BME280;20918;51.138;17.370;2023-09-07T10:44:27;101136.20;;;26.65;41.52
34696;BME280;20918;51.138;17.370;2023-09-07T10:47:28;101132.25;;;26.66;42.64
34696;BME280;20918;51.138;17.370;2023-09-07T10:50:29;101130.28;;;26.88;42.47
34696;BME280;20918;51.138;17.370;2023-09-07T10:53:31;101134.39;;;26.94;41.56
34696;BME280;20918;51.138;17.370;2023-09-07T10:56:32;101121.69;;;26.77;41.67
34696;BME280;20918;51.138;17.370;2023-09-07T10:59:32;101121.19;;;26.85;42.03
34696;BME280;20918;51.138;17.370;2023-09-07T11:02:33;101121.44;;;26.94;41.71
34696;BME280;20918;51.138;17.370;2023-09-07T11:05:35;101116.06;;;26.97;42.04
34696;BME280;20918;51.138;17.370;2023-09-07T11:08:37;101112.48;;;26.97;42.20
34696;BME280;20918;51.138;17.370;2023-09-07T11:11:38;101111.69;;;27.07;42.17
34696;BME280;20918;51.138;17.370;2023-09-07T11:14:39;101111.27;;;27.21;41.97
34696;BME280;20918;51.138;17.370;2023-09-07T11:17:39;101112.30;;;27.27;41.52
34696;BME280;20918;51.138;17.370;2023-09-07T11:20:41;101110.73;;;27.23;41.30
34696;BME280;20918;51.138;17.370;2023-09-07T11:23:42;101110.75;;;27.21;41.28
34696;BME280;20918;51.138;17.370;2023-09-07T11:26:45;101111.17;;;27.20;41.39
34696;BME280;20918;51.138;17.370;2023-09-07T11:29:52;101111.95;;;27.20;40.90
34696;BME280;20918;51.138;17.370;2023-09-07T11:33:09;101110.08;;;27.24;40.94
34696;BME280;20918;51.138;17.370;2023-09-07T11:36:09;101111.43;;;27.28;40.66
34696;BME280;20918;51.138;17.370;2023-09-07T11:39:12;101104.52;;;27.20;40.06
34696;BME280;20918;51.138;17.370;2023-09-07T11:42:12;101103.84;;;27.11;40.65
34696;BME280;20918;51.138;17.370;2023-09-07T11:45:13;101103.02;;;27.07;40.30
34696;BME280;20918;51.138;17.370;2023-09-07T11:48:16;101105.10;;;27.08;40.56
34696;BME280;20918;51.138;17.370;2023-09-07T11:51:17;101099.61;;;27.16;40.67
34696;BME280;20918;51.138;17.370;2023-09-07T11:54:17;101093.25;;;27.19;40.40
34696;BME280;20918;51.138;17.370;2023-09-07T11:57:18;101103.04;;;27.07;39.46
34696;BME280;20918;51.138;17.370;2023-09-07T12:00:19;101096.79;;;26.96;39.93
34696;BME280;20918;51.138;17.370;2023-09-07T12:03:19;101093.71;;;26.94;40.33
34696;BME280;20918;51.138;17.370;2023-09-07T12:06:20;101095.11;;;26.94;39.88
34696;BME280;20918;51.138;17.370;2023-09-07T12:09:21;101097.04;;;26.86;39.75
34696;BME280;20918;51.138;17.370;2023-09-07T12:12:21;101090.53;;;26.88;40.08
34696;BME280;20918;51.138;17.370;2023-09-07T12:15:22;101087.19;;;26.91;40.21
34696;BME280;20918;51.138;17.370;2023-09-07T12:18:22;101085.85;;;27.06;40.50
34696;BME280;20918;51.138;17.370;2023-09-07T12:21:24;101084.21;;;27.06;40.57
34696;BME280;20918;51.138;17.370;2023-09-07T12:24:24;101087.26;;;27.09;40.22
34696;BME280;20918;51.138;17.370;2023-09-07T12:27:25;101077.79;;;27.14;40.23
34696;BME280;20918;51.138;17.370;2023-09-07T12:30:25;101080.96;;;27.22;40.51
34696;BME280;20918;51.138;17.370;2023-09-07T12:33:26;101078.10;;;27.25;40.08
34696;BME280;20918;51.138;17.370;2023-09-07T12:36:29;101077.33;;;27.07;39.91
34696;BME280;20918;51.138;17.370;2023-09-07T12:39:30;101066.55;;;26.96;40.28
34696;BME280;20918;51.138;17.370;2023-09-07T12:42:31;101067.70;;;26.92;40.48
34696;BME280;20918;51.138;17.370;2023-09-07T12:45:32;101065.92;;;26.98;40.36
34696;BME280;20918;51.138;17.370;2023-09-07T12:48:33;101070.31;;;26.96;40.18
34696;BME280;20918;51.138;17.370;2023-09-07T12:51:33;101064.36;;;26.95;40.33
34696;BME280;20918;51.138;17.370;2023-09-07T12:54:35;101065.30;;;26.97;40.40
34696;BME280;20918;51.138;17.370;2023-09-07T12:57:36;101061.95;;;26.94;39.92
34696;BME280;20918;51.138;17.370;2023-09-07T13:00:37;101050.63;;;26.89;40.23
34696;BME280;20918;51.138;17.370;2023-09-07T13:03:38;101049.80;;;26.82;40.02
34696;BME280;20918;51.138;17.370;2023-09-07T13:06:38;101049.73;;;26.79;40.67
34696;BME280;20918;51.138;17.370;2023-09-07T13:09:42;101052.80;;;26.85;40.77
34696;BME280;20918;51.138;17.370;2023-09-07T13:12:42;101039.41;;;26.86;40.32
34696;BME280;20918;51.138;17.370;2023-09-07T13:15:43;101039.87;;;26.87;39.67
34696;BME280;20918;51.138;17.370;2023-09-07T13:18:43;101038.74;;;26.80;40.07
34696;BME280;20918;51.138;17.370;2023-09-07T13:21:44;101044.48;;;26.81;39.58
34696;BME280;20918;51.138;17.370;2023-09-07T13:24:44;101038.96;;;26.76;39.13
34696;BME280;20918;51.138;17.370;2023-09-07T13:27:45;101042.17;;;26.76;39.33
34696;BME280;20918;51.138;17.370;2023-09-07T13:30:46;101044.49;;;26.70;39.56
34696;BME280;20918;51.138;17.370;2023-09-07T13:33:46;101043.91;;;26.64;40.07
34696;BME280;20918;51.138;17.370;2023-09-07T13:36:50;101039.05;;;26.61;40.15
34696;BME280;20918;51.138;17.370;2023-09-07T13:39:51;101035.38;;;26.57;40.24
34696;BME280;20918;51.138;17.370;2023-09-07T13:42:51;101035.60;;;26.57;40.30
34696;BME280;20918;51.138;17.370;2023-09-07T13:45:52;101036.64;;;26.58;40.07
34696;BME280;20918;51.138;17.370;2023-09-07T13:48:53;101033.16;;;26.54;39.99
34696;BME280;20918;51.138;17.370;2023-09-07T13:51:54;101029.29;;;26.48;39.66
34696;BME280;20918;51.138;17.370;2023-09-07T13:54:54;101027.49;;;26.44;39.92
34696;BME280;20918;51.138;17.370;2023-09-07T13:57:55;101025.47;;;26.43;39.55
34696;BME280;20918;51.138;17.370;2023-09-07T14:00:56;101021.84;;;26.41;39.97
34696;BME280;20918;51.138;17.370;2023-09-07T14:03:56;101030.37;;;26.43;40.25
34696;BME280;20918;51.138;17.370;2023-09-07T14:06:57;101031.49;;;26.38;39.90
34696;BME280;20918;51.138;17.370;2023-09-07T14:09:57;101031.89;;;26.31;39.78
34696;BME280;20918;51.138;17.370;2023-09-07T14:12:58;101034.20;;;26.30;40.35
34696;BME280;20918;51.138;17.370;2023-09-07T14:15:59;101028.50;;;26.30;40.40
34696;BME280;20918;51.138;17.370;2023-09-07T14:18:59;101028.40;;;26.27;40.97
34696;BME280;20918;51.138;17.370;2023-09-07T14:22:00;101031.62;;;26.28;41.00
34696;BME280;20918;51.138;17.370;2023-09-07T14:25:01;101022.55;;;26.30;40.68
34696;BME280;20918;51.138;17.370;2023-09-07T14:28:01;101028.73;;;26.31;40.89
34696;BME280;20918;51.138;17.370;2023-09-07T14:31:02;101029.39;;;26.28;40.86
34696;BME280;20918;51.138;17.370;2023-09-07T14:34:04;101025.39;;;26.19;40.94
34696;BME280;20918;51.138;17.370;2023-09-07T14:37:05;101023.85;;;26.12;41.21
34696;BME280;20918;51.138;17.370;2023-09-07T14:40:06;101016.21;;;26.06;41.32
34696;BME280;20918;51.138;17.370;2023-09-07T14:43:07;101016.86;;;26.06;41.36
34696;BME280;20918;51.138;17.370;2023-09-07T14:46:09;101019.55;;;26.04;41.11
34696;BME280;20918;51.138;17.370;2023-09-07T14:49:09;101010.21;;;25.99;41.64
34696;BME280;20918;51.138;17.370;2023-09-07T14:52:10;101009.25;;;25.92;42.04
34696;BME280;20918;51.138;17.370;2023-09-07T14:55:11;101007.58;;;25.89;41.92
34696;BME280;20918;51.138;17.370;2023-09-07T14:58:12;101007.88;;;25.85;42.33
34696;BME280;20918;51.138;17.370;2023-09-07T15:01:13;101006.82;;;25.79;42.30
34696;BME280;20918;51.138;17.370;2023-09-07T15:04:14;101007.60;;;25.77;42.59
34696;BME280;20918;51.138;17.370;2023-09-07T15:07:14;101003.23;;;25.75;42.29
34696;BME280;20918;51.138;17.370;2023-09-07T15:10:15;101003.23;;;25.69;41.96
34696;BME280;20918;51.138;17.370;2023-09-07T15:13:16;101000.22;;;25.64;42.25
34696;BME280;20918;51.138;17.370;2023-09-07T15:16:17;100998.89;;;25.63;42.58
34696;BME280;20918;51.138;17.370;2023-09-07T15:19:17;101000.46;;;25.60;42.21
34696;BME280;20918;51.138;17.370;2023-09-07T15:22:18;100994.61;;;25.55;42.33
34696;BME280;20918;51.138;17.370;2023-09-07T15:25:18;100997.27;;;25.54;42.64
34696;BME280;20918;51.138;17.370;2023-09-07T15:28:19;100994.47;;;25.53;42.59
34696;BME280;20918;51.138;17.370;2023-09-07T15:31:19;100994.55;;;25.50;42.52
34696;BME280;20918;51.138;17.370;2023-09-07T15:34:20;100996.50;;;25.47;42.77
34696;BME280;20918;51.138;17.370;2023-09-07T15:37:21;100994.66;;;25.41;42.71